Time;durP1;ratioP1;P1;durP2;ratioP2;P2;SDS_P1;SDS_P2;PMS_P1;PMS_P2;Temp;Humidity;BMP_temperature;BMP_pressure;BME280_temperature;BME280_humidity;BME280_pressure;Samples;Min_cycle;Max_cycle;Signal;HPM_P1;HPM_P2
2023/06/02 00:01:01;;;;;;;7.03;6.50;;;;;;;19.78;80.51;99306.59;5033191;28;20223;-70
2023/06/02 00:03:31;;;;;;;7.67;6.93;;;;;;;19.79;80.39;99294.72;5032332;28;20719;-70
2023/06/02 00:05:59;;;;;;;7.27;6.70;;;;;;;19.80;80.38;99301.75;5032713;28;20243;-70
2023/06/02 00:08:26;;;;;;;7.00;6.57;;;;;;;19.81;80.57;99306.09;5032300;28;20226;-70
2023/06/02 00:10:53;;;;;;;8.00;6.67;;;;;;;19.81;80.58;99300.69;5043955;28;20197;-70
2023/06/02 00:13:19;;;;;;;6.77;6.27;;;;;;;19.79;80.68;99297.44;5052573;28;20546;-70
2023/06/02 00:15:46;;;;;;;7.30;6.60;;;;;;;19.79;80.62;99292.03;5052478;28;20196;-70
2023/06/02 00:18:13;;;;;;;7.53;6.93;;;;;;;19.78;80.70;99290.41;5051999;28;20695;-70
2023/06/02 00:20:42;;;;;;;7.20;6.47;;;;;;;19.78;80.85;99290.41;5040405;28;20688;-71
2023/06/02 00:23:09;;;;;;;6.57;6.03;;;;;;;19.69;81.03;99275.81;5032096;28;20568;-71
2023/06/02 00:25:37;;;;;;;6.80;6.27;;;;;;;19.72;80.85;99283.34;5031987;28;20236;-71
2023/06/02 00:28:04;;;;;;;7.60;6.70;;;;;;;19.75;81.01;99280.16;5032238;28;20228;-71
2023/06/02 00:30:31;;;;;;;6.67;6.23;;;;;;;19.72;81.07;99280.66;5040565;28;20222;-71
2023/06/02 00:32:58;;;;;;;6.87;6.33;;;;;;;19.73;80.80;99276.91;5050125;28;20283;-71
2023/06/02 00:35:25;;;;;;;7.10;6.57;;;;;;;19.72;80.69;99275.28;5051902;28;20196;-70
2023/06/02 00:37:54;;;;;;;7.33;6.33;;;;;;;19.69;80.79;99275.81;5051847;28;20197;-71
2023/06/02 00:40:21;;;;;;;7.13;6.47;;;;;;;19.64;81.09;99273.88;5043629;28;20204;-70
2023/06/02 00:42:48;;;;;;;7.27;6.77;;;;;;;19.66;80.93;99279.03;5031391;28;20197;-70
2023/06/02 00:45:15;;;;;;;7.57;6.97;;;;;;;19.64;81.22;99275.78;5032038;28;20247;-72
2023/06/02 00:47:42;;;;;;;8.50;6.60;;;;;;;19.60;81.36;99282.78;5031699;28;20225;-72
2023/06/02 00:50:09;;;;;;;6.87;6.23;;;;;;;19.56;81.46;99281.66;5036844;28;20232;-71
2023/06/02 00:52:40;;;;;;;7.20;6.57;;;;;;;19.54;81.69;99281.09;5051695;28;20208;-72
2023/06/02 00:55:09;;;;;;;6.57;6.07;;;;;;;19.48;82.12;99277.53;5051547;28;20226;-71
2023/06/02 00:57:40;;;;;;;9.73;6.47;;;;;;;19.38;82.86;99279.34;5052074;28;20199;-71
2023/06/02 01:00:09;;;;;;;7.50;6.87;;;;;;;19.32;83.47;99275.81;5045720;28;20189;-71
2023/06/02 01:02:36;;;;;;;7.23;6.53;;;;;;;19.30;82.89;99290.59;5031917;28;20289;-70
2023/06/02 01:05:07;;;;;;;10.83;6.57;;;;;;;19.25;83.40;99286.00;5031812;28;20200;-71
2023/06/02 01:07:34;;;;;;;7.53;6.93;;;;;;;19.14;83.14;99286.13;5031951;28;20220;-71
2023/06/02 01:10:02;;;;;;;10.67;6.90;;;;;;;19.06;83.30;99281.19;5034473;28;20196;-71
2023/06/02 01:12:31;;;;;;;7.63;6.37;;;;;;;18.97;83.80;99280.88;5051542;28;20199;-70
2023/06/02 01:14:58;;;;;;;9.23;6.90;;;;;;;18.92;84.23;99278.13;5051682;28;20255;-70
2023/06/02 01:17:30;;;;;;;7.03;6.63;;;;;;;18.86;83.95;99287.22;5051793;28;20199;-71
2023/06/02 01:20:04;;;;;;;7.47;6.70;;;;;;;18.76;84.41;99276.34;5047403;28;20213;-71
2023/06/02 01:22:38;;;;;;;7.57;6.97;;;;;;;18.69;83.99;99286.50;5031549;28;20196;-71
2023/06/02 01:25:17;;;;;;;9.70;7.37;;;;;;;18.59;85.00;99281.00;5031402;28;20189;-70
2023/06/02 01:27:44;;;;;;;7.73;7.03;;;;;;;18.60;85.42;99281.81;5031627;28;20218;-69
2023/06/02 01:30:12;;;;;;;7.97;7.10;;;;;;;18.60;85.66;99271.88;5036304;28;20192;-69
2023/06/02 01:32:44;;;;;;;7.13;6.53;;;;;;;18.62;86.00;99277.00;5051341;28;20658;-70
2023/06/02 01:35:12;;;;;;;11.90;7.43;;;;;;;18.59;85.15;99280.19;5051510;28;20246;-70
2023/06/02 01:37:54;;;;;;;8.90;7.23;;;;;;;18.53;86.22;99275.81;5051673;28;20774;-70
2023/06/02 01:40:24;;;;;;;8.47;7.37;;;;;;;18.56;86.10;99275.31;5030134;28;20182;-70
2023/06/02 01:42:53;;;;;;;7.90;7.17;;;;;;;18.55;85.75;99279.06;5031718;28;20200;-70
2023/06/02 01:45:20;;;;;;;8.60;6.97;;;;;;;18.57;85.22;99283.13;5031490;28;20206;-70
2023/06/02 01:47:47;;;;;;;7.63;6.83;;;;;;;18.56;85.04;99281.53;5031117;28;20270;-70
2023/06/02 01:50:14;;;;;;;8.27;6.97;;;;;;;18.56;84.30;99284.22;5049251;28;20195;-70
2023/06/02 01:52:41;;;;;;;10.50;7.43;;;;;;;18.52;85.57;99274.19;5051492;28;20198;-70
2023/06/02 01:55:08;;;;;;;10.00;6.77;;;;;;;18.53;85.43;99275.81;5054682;28;20189;-70
2023/06/02 01:57:36;;;;;;;8.83;8.03;;;;;;;18.50;85.43;99279.81;5053976;28;20202;-71
2023/06/02 02:00:05;;;;;;;13.70;7.70;;;;;;;18.52;85.30;99274.19;5036820;28;20197;-70
2023/06/02 02:02:31;;;;;;;17.70;8.43;;;;;;;18.49;86.11;99280.06;5034709;28;20195;-69
2023/06/02 02:04:58;;;;;;;9.03;7.23;;;;;;;18.49;86.02;99272.00;5034486;28;20195;-70
2023/06/02 02:07:25;;;;;;;8.50;7.27;;;;;;;18.45;85.24;99274.38;5034549;28;20231;-70
2023/06/02 02:09:52;;;;;;;10.73;7.83;;;;;;;18.41;85.24;99272.44;5047656;28;20277;-70
2023/06/02 02:12:19;;;;;;;13.30;8.13;;;;;;;18.23;85.95;99275.44;5054104;28;20745;-70
2023/06/02 02:14:49;;;;;;;8.00;7.30;;;;;;;18.13;86.48;99280.69;5054553;28;20194;-70
2023/06/02 02:17:16;;;;;;;11.80;7.90;;;;;;;18.05;87.60;99279.22;5054615;28;20278;-70
2023/06/02 02:19:44;;;;;;;8.50;7.77;;;;;;;18.05;87.65;99270.38;5041250;28;20194;-70
2023/06/02 02:22:12;;;;;;;8.53;7.17;;;;;;;18.03;87.31;99275.16;5034531;28;20259;-70
2023/06/02 02:24:38;;;;;;;8.77;7.80;;;;;;;18.03;87.29;99272.50;5034568;28;20198;-70
2023/06/02 02:27:08;;;;;;;10.40;8.77;;;;;;;18.04;87.39;99276.78;5034398;28;20198;-69
2023/06/02 02:29:36;;;;;;;9.53;8.13;;;;;;;18.00;87.53;99259.53;5045377;28;20198;-69
2023/06/02 02:32:04;;;;;;;8.83;7.10;;;;;;;18.06;87.32;99272.00;5054239;28;20193;-69
2023/06/02 02:34:32;;;;;;;8.67;7.80;;;;;;;18.05;86.95;99273.06;5053961;28;20194;-69
2023/06/02 02:37:01;;;;;;;8.93;8.17;;;;;;;18.07;86.92;99273.63;5054095;28;20237;-71
2023/06/02 02:39:28;;;;;;;8.80;7.90;;;;;;;18.05;86.96;99273.84;5043660;28;20196;-71
2023/06/02 02:41:55;;;;;;;11.50;7.53;;;;;;;18.01;87.26;99266.56;5033654;28;20194;-71
2023/06/02 02:44:21;;;;;;;16.10;8.90;;;;;;;17.99;86.38;99264.13;5033449;28;20680;-71
2023/06/02 02:46:48;;;;;;;10.07;8.30;;;;;;;17.89;87.01;99260.47;5035293;28;20194;-71
2023/06/02 02:49:16;;;;;;;15.37;8.30;;;;;;;17.85;88.01;99257.47;5053628;28;20220;-71
2023/06/02 02:51:43;;;;;;;8.80;7.87;;;;;;;17.79;88.58;99252.28;5053896;28;20198;-70
2023/06/02 02:54:10;;;;;;;10.67;7.63;;;;;;;17.94;87.60;99265.91;5053932;28;20718;-70
2023/06/02 02:56:39;;;;;;;8.70;7.90;;;;;;;17.98;87.65;99262.50;5053152;28;20189;-70
2023/06/02 02:59:06;;;;;;;15.33;8.73;;;;;;;17.96;87.14;99261.09;5033526;28;20205;-70
2023/06/02 03:01:32;;;;;;;10.17;8.67;;;;;;;17.97;87.31;99266.22;5033808;28;20193;-70
2023/06/02 03:03:59;;;;;;;10.30;7.63;;;;;;;18.01;87.27;99264.66;5033370;28;20201;-70
2023/06/02 03:06:31;;;;;;;10.80;7.83;;;;;;;18.06;86.88;99262.06;5033901;28;20193;-70
2023/06/02 03:08:58;;;;;;;8.17;7.57;;;;;;;18.10;86.67;99263.19;5033748;28;20683;-70
2023/06/02 03:11:25;;;;;;;8.53;7.27;;;;;;;18.12;86.89;99257.53;5033562;28;20625;-70
2023/06/02 03:13:52;;;;;;;16.50;8.07;;;;;;;18.18;86.92;99261.94;5033652;28;20197;-70
2023/06/02 03:16:19;;;;;;;10.67;8.13;;;;;;;18.25;86.87;99265.25;5033536;28;20265;-69
2023/06/02 03:18:46;;;;;;;12.50;7.87;;;;;;;18.30;86.70;99273.38;5047716;28;20205;-70
2023/06/02 03:21:13;;;;;;;8.77;7.43;;;;;;;18.28;86.16;99272.81;5013340;28;20616;-70
2023/06/02 03:23:41;;;;;;;10.40;7.67;;;;;;;18.24;86.22;99271.66;5013608;28;20194;-69
2023/06/02 03:26:08;;;;;;;7.97;7.13;;;;;;;18.05;85.76;99259.63;5013089;28;20197;-69
2023/06/02 03:28:35;;;;;;;8.40;7.47;;;;;;;18.18;86.97;99272.69;5038311;28;20224;-70
2023/06/02 03:31:02;;;;;;;8.70;7.77;;;;;;;18.29;86.24;99277.13;5052785;28;20255;-69
2023/06/02 03:33:28;;;;;;;9.70;6.67;;;;;;;18.32;85.58;99273.94;5053182;28;20193;-71
2023/06/02 03:35:55;;;;;;;9.37;6.90;;;;;;;18.41;85.50;99272.44;5052881;28;20233;-70
2023/06/02 03:38:22;;;;;;;7.33;6.73;;;;;;;18.68;83.48;99284.06;5041840;28;20219;-71
2023/06/02 03:40:50;;;;;;;8.87;6.77;;;;;;;18.86;82.61;99281.00;5031767;28;20750;-69
2023/06/02 03:43:17;;;;;;;8.27;7.50;;;;;;;18.86;81.90;99291.78;5036600;28;20661;-70
2023/06/02 03:45:45;;;;;;;9.90;7.13;;;;;;;18.73;81.64;99286.78;5032971;28;20260;-71
2023/06/02 03:48:11;;;;;;;11.07;7.43;;;;;;;18.71;83.74;99283.56;5032382;28;20221;-70
2023/06/02 03:50:38;;;;;;;8.57;7.33;;;;;;;18.96;83.04;99281.13;5032873;28;20202;-71
2023/06/02 03:53:05;;;;;;;10.73;7.17;;;;;;;19.28;79.96;99290.06;5035908;28;20281;-74
2023/06/02 03:55:32;;;;;;;8.97;6.57;;;;;;;19.50;80.85;99293.47;5041323;28;20208;-72
2023/06/02 03:58:00;;;;;;;9.53;6.47;;;;;;;19.69;77.88;99289.28;5030706;28;20288;-74
2023/06/02 04:00:27;;;;;;;8.33;6.50;;;;;;;19.70;77.33;99285.50;5031253;28;20255;-73
2023/06/02 04:02:53;;;;;;;9.63;5.97;;;;;;;19.93;80.61;99277.03;5029286;28;20197;-74
2023/06/02 04:05:20;;;;;;;15.77;8.20;;;;;;;20.59;74.08;99292.47;5033301;28;20701;-75
2023/06/02 04:07:48;;;;;;;16.60;7.17;;;;;;;21.53;71.07;99304.50;5030107;28;20205;-74
2023/06/02 04:10:14;;;;;;;17.67;7.87;;;;;;;22.45;67.29;99304.03;5031348;28;20630;-77
2023/06/02 04:12:41;;;;;;;17.00;7.00;;;;;;;23.24;63.65;99316.34;5031635;28;20197;-75
2023/06/02 04:15:10;;;;;;;18.83;6.43;;;;;;;23.69;60.75;99318.69;5030575;28;20197;-77
2023/06/02 04:17:37;;;;;;;12.53;6.17;;;;;;;24.40;58.20;99310.66;5028891;28;20205;-83
2023/06/02 04:20:04;;;;;;;8.40;5.87;;;;;;;25.19;56.08;99310.66;5030245;28;20198;-77
2023/06/02 04:22:31;;;;;;;10.47;5.20;;;;;;;26.32;54.24;99310.09;5028906;28;20274;-71
2023/06/02 04:24:58;;;;;;;8.27;5.27;;;;;;;27.25;49.46;99299.38;5041219;28;20196;-74
2023/06/02 04:27:24;;;;;;;9.40;5.47;;;;;;;28.08;47.38;99308.44;5036261;28;20616;-74
2023/06/02 04:29:51;;;;;;;6.90;5.77;;;;;;;28.68;42.75;99305.94;5029294;28;20275;-75
2023/06/02 04:32:19;;;;;;;23.03;6.17;;;;;;;28.97;42.42;99303.41;5030468;28;20284;-76
2023/06/02 04:34:46;;;;;;;9.17;4.93;;;;;;;29.11;42.01;99296.66;5029422;28;20201;-70
2023/06/02 04:37:13;;;;;;;5.80;5.17;;;;;;;29.38;40.37;99297.44;5030561;28;20670;-72
2023/06/02 04:39:41;;;;;;;8.30;4.60;;;;;;;29.56;41.38;99299.06;5025314;28;20896;-75
2023/06/02 04:42:08;;;;;;;6.17;5.20;;;;;;;29.91;40.27;99295.13;5030038;28;20208;-72
2023/06/02 04:44:35;;;;;;;32.43;6.43;;;;;;;30.41;39.61;99296.88;5030036;28;20197;-70
2023/06/02 04:47:02;;;;;;;9.20;5.73;;;;;;;30.75;38.51;99295.91;5029639;28;20247;-71
2023/06/02 04:49:30;;;;;;;9.67;5.17;;;;;;;31.15;37.54;99297.88;5029680;28;20225;-69
2023/06/02 04:51:57;;;;;;;6.80;5.63;;;;;;;31.48;35.86;99301.47;5029851;28;20190;-68
2023/06/02 04:54:24;;;;;;;6.03;4.87;;;;;;;31.49;36.15;99305.84;5029124;28;20685;-71
2023/06/02 04:56:51;;;;;;;5.43;5.03;;;;;;;31.82;34.26;99311.34;5015062;28;20201;-68
2023/06/02 04:59:18;;;;;;;11.53;4.73;;;;;;;32.15;35.12;99309.34;5010939;28;20264;-70
2023/06/02 05:01:45;;;;;;;12.70;5.30;;;;;;;32.42;34.22;99305.97;5023038;28;20220;-68
2023/06/02 05:04:12;;;;;;;7.60;4.97;;;;;;;33.05;33.35;99311.53;5037938;28;20189;-69
2023/06/02 05:06:40;;;;;;;8.00;4.57;;;;;;;33.03;33.47;99304.78;5031471;28;20186;-72
2023/06/02 05:09:06;;;;;;;7.77;4.53;;;;;;;33.10;32.67;99311.28;5031026;28;20767;-68
2023/06/02 05:11:33;;;;;;;6.53;5.03;;;;;;;32.90;32.69;99309.50;5030092;28;20193;-67
2023/06/02 05:14:00;;;;;;;9.20;5.17;;;;;;;33.06;32.42;99318.63;5013250;28;20198;-68
2023/06/02 05:16:28;;;;;;;6.10;5.13;;;;;;;32.40;33.20;99322.00;5016111;28;20677;-68
2023/06/02 05:18:54;;;;;;;7.67;5.50;;;;;;;31.98;34.71;99315.88;5033673;28;20193;-68
2023/06/02 05:21:21;;;;;;;7.43;5.37;;;;;;;31.82;35.21;99323.16;5030387;28;20193;-69
2023/06/02 05:23:49;;;;;;;6.97;5.23;;;;;;;31.78;35.68;99316.72;5028554;28;20197;-70
2023/06/02 05:26:16;;;;;;;8.60;4.90;;;;;;;31.53;35.72;99314.19;5029969;28;20271;-69
2023/06/02 05:28:43;;;;;;;7.93;4.87;;;;;;;31.91;35.51;99320.28;5032720;28;20221;-67
2023/06/02 05:31:10;;;;;;;6.47;4.67;;;;;;;32.03;35.69;99323.88;5018023;28;20194;-67
2023/06/02 05:33:37;;;;;;;6.43;4.83;;;;;;;32.31;34.88;99324.88;5033442;28;20193;-67
2023/06/02 05:36:04;;;;;;;8.60;5.37;;;;;;;32.83;34.22;99325.00;5034230;28;20279;-66
2023/06/02 05:38:31;;;;;;;15.23;5.53;;;;;;;32.55;34.50;99324.06;5032642;28;20193;-67
2023/06/02 05:40:59;;;;;;;10.33;5.53;;;;;;;32.49;34.54;99320.75;5032850;28;20193;-68
2023/06/02 05:43:25;;;;;;;16.93;5.27;;;;;;;32.86;34.39;99325.09;5033519;28;20194;-69
2023/06/02 05:45:52;;;;;;;15.70;5.70;;;;;;;32.77;34.18;99316.16;5033185;28;20193;-68
2023/06/02 05:48:19;;;;;;;11.70;5.83;;;;;;;32.78;33.45;99327.94;5044305;28;20197;-67
2023/06/02 05:50:46;;;;;;;20.73;7.27;;;;;;;32.78;34.28;99334.25;5039137;28;20879;-67
2023/06/02 05:53:12;;;;;;;11.03;4.83;;;;;;;32.55;34.12;99341.34;5033377;28;20193;-67
2023/06/02 05:55:39;;;;;;;24.00;6.40;;;;;;;32.35;35.05;99346.97;5032711;28;20665;-70
2023/06/02 05:58:07;;;;;;;7.40;5.13;;;;;;;32.00;35.33;99345.72;5032531;28;20201;-70
2023/06/02 06:00:34;;;;;;;9.70;4.97;;;;;;;32.55;34.52;99341.34;5034374;28;20251;-67
2023/06/02 06:03:01;;;;;;;6.50;4.60;;;;;;;32.57;33.83;99339.09;5033173;28;20193;-68
2023/06/02 06:05:28;;;;;;;8.63;4.30;;;;;;;32.10;35.46;99334.31;5032598;28;20251;-68
2023/06/02 06:07:54;;;;;;;10.10;4.17;;;;;;;32.11;35.50;99341.41;5033739;28;20649;-68
2023/06/02 06:10:21;;;;;;;18.67;5.50;;;;;;;31.91;34.38;99337.59;5033790;28;20221;-68
2023/06/02 06:12:48;;;;;;;7.77;4.77;;;;;;;31.65;35.39;99331.50;5033325;28;20193;-71
2023/06/02 06:15:16;;;;;;;8.93;4.90;;;;;;;31.53;36.57;99337.00;5033218;28;20197;-71
2023/06/02 06:17:50;;;;;;;5.10;4.60;;;;;;;31.83;35.47;99333.00;5033210;28;20719;-68
2023/06/02 06:20:16;;;;;;;11.83;5.47;;;;;;;32.15;33.93;99339.59;5033873;28;20201;-67
2023/06/02 06:22:43;;;;;;;8.27;5.23;;;;;;;32.09;34.81;99335.47;5033018;28;20664;-69
2023/06/02 06:25:11;;;;;;;8.60;4.43;;;;;;;31.54;36.47;99333.09;5043224;28;20254;-73
2023/06/02 06:27:37;;;;;;;6.77;4.93;;;;;;;31.46;36.33;99330.41;5034711;28;20190;-70
2023/06/02 06:30:05;;;;;;;9.33;4.60;;;;;;;31.42;36.46;99335.78;5032056;28;20283;-68
2023/06/02 06:32:33;;;;;;;8.97;5.30;;;;;;;31.64;36.05;99329.13;5033113;28;20196;-69
2023/06/02 06:35:00;;;;;;;6.20;4.77;;;;;;;31.65;35.46;99334.25;5035098;28;20186;-67
2023/06/02 06:37:28;;;;;;;9.10;5.40;;;;;;;31.55;35.24;99329.19;5052476;28;20286;-68
2023/06/02 06:39:55;;;;;;;6.13;5.03;;;;;;;31.30;36.88;99327.50;5051963;28;20228;-66
2023/06/02 06:42:22;;;;;;;6.27;4.50;;;;;;;31.31;36.43;99329.09;5053095;28;20200;-69
2023/06/02 06:44:51;;;;;;;6.47;4.67;;;;;;;31.45;36.28;99321.38;5051073;28;20568;-69
2023/06/02 06:47:17;;;;;;;5.40;4.90;;;;;;;31.40;36.32;99316.06;5052898;28;20571;-72
2023/06/02 06:49:45;;;;;;;5.00;4.50;;;;;;;31.35;37.00;99308.06;5053237;28;20285;-71
2023/06/02 06:52:12;;;;;;;7.40;5.20;;;;;;;31.58;36.36;99308.50;5052841;28;20193;-73
2023/06/02 06:54:39;;;;;;;7.30;5.40;;;;;;;31.83;35.43;99308.25;5052180;28;20576;-72
2023/06/02 06:57:06;;;;;;;6.47;5.47;;;;;;;31.84;34.72;99307.13;5040888;28;20263;-70
2023/06/02 06:59:33;;;;;;;6.53;5.20;;;;;;;32.12;34.58;99305.34;5032713;28;20197;-68
2023/06/02 07:01:59;;;;;;;10.60;5.37;;;;;;;32.27;34.99;99304.69;5032785;28;20193;-70
2023/06/02 07:04:27;;;;;;;15.17;5.57;;;;;;;32.40;35.34;99308.25;5032162;28;20193;-68
2023/06/02 07:06:55;;;;;;;6.77;5.13;;;;;;;32.42;34.06;99301.25;5032790;28;20188;-68
2023/06/02 07:09:22;;;;;;;7.53;5.03;;;;;;;32.23;35.35;99301.00;5031411;28;20283;-68
2023/06/02 07:11:49;;;;;;;7.20;4.67;;;;;;;32.28;34.89;99306.28;5031525;28;20186;-70
2023/06/02 07:14:16;;;;;;;7.63;5.73;;;;;;;32.50;33.28;99310.56;5030646;28;20193;-69
2023/06/02 07:16:45;;;;;;;6.13;5.43;;;;;;;32.39;34.26;99304.72;5038944;28;20280;-68
2023/06/02 07:19:12;;;;;;;11.03;5.37;;;;;;;31.92;34.72;99308.97;5035737;28;20564;-68
2023/06/02 07:21:38;;;;;;;10.57;6.23;;;;;;;31.75;34.61;99306.38;5039248;28;20212;-69
2023/06/02 07:24:07;;;;;;;6.13;4.80;;;;;;;31.62;35.15;99301.19;5041067;28;20276;-67
2023/06/02 07:26:33;;;;;;;6.30;4.93;;;;;;;31.27;36.84;99292.47;5047526;28;20560;-71
2023/06/02 07:29:00;;;;;;;13.67;5.50;;;;;;;31.09;36.74;99290.16;5042385;28;20221;-73
2023/06/02 07:31:26;;;;;;;5.73;5.20;;;;;;;31.25;37.05;99286.53;5031672;28;20248;-69
2023/06/02 07:33:53;;;;;;;5.73;5.10;;;;;;;31.41;36.19;99290.25;5031011;28;20197;-68
2023/06/02 07:36:20;;;;;;;5.90;4.47;;;;;;;31.50;35.83;99279.97;5032003;28;20701;-69
2023/06/02 07:38:46;;;;;;;5.67;5.13;;;;;;;31.79;36.01;99285.34;5030818;28;20570;-72
2023/06/02 07:41:15;;;;;;;4.73;4.40;;;;;;;31.98;34.73;99288.38;5031872;28;20247;-68
2023/06/02 07:43:41;;;;;;;7.17;4.73;;;;;;;32.27;35.00;99290.13;5030965;28;20193;-73
2023/06/02 07:46:08;;;;;;;5.80;5.03;;;;;;;32.34;34.22;99302.16;5031655;28;20190;-67
2023/06/02 07:48:35;;;;;;;6.47;4.83;;;;;;;32.37;34.20;99295.16;5031080;28;20189;-68
2023/06/02 07:51:02;;;;;;;18.63;5.17;;;;;;;32.33;34.41;99294.25;5029923;28;20680;-68
2023/06/02 07:53:29;;;;;;;10.87;5.03;;;;;;;32.53;34.69;99290.59;5031015;28;20875;-67
2023/06/02 07:55:56;;;;;;;22.83;5.43;;;;;;;32.74;34.32;99297.56;5031435;28;20193;-69
2023/06/02 07:58:24;;;;;;;8.27;4.70;;;;;;;32.91;33.65;99297.31;5029508;28;20193;-68
2023/06/02 08:00:51;;;;;;;4.93;4.53;;;;;;;33.06;33.28;99295.81;5031399;28;20251;-66
2023/06/02 08:03:18;;;;;;;5.10;4.10;;;;;;;33.26;32.60;99287.38;5031670;28;20247;-67
2023/06/02 08:05:45;;;;;;;7.70;5.00;;;;;;;33.33;31.30;99295.84;5027993;28;20665;-71
2023/06/02 08:08:12;;;;;;;5.68;4.68;;;;;;;33.24;32.06;99286.91;5030416;28;20240;-67
2023/06/02 08:10:39;;;;;;;5.90;5.32;;;;;;;33.00;32.26;99286.19;5031737;28;20221;-69
2023/06/02 08:13:05;;;;;;;5.85;5.13;;;;;;;32.90;31.96;99279.22;5030068;28;20181;-66
2023/06/02 08:15:33;;;;;;;9.43;4.65;;;;;;;33.19;32.23;99283.59;5032658;28;20189;-67
2023/06/02 08:18:00;;;;;;;9.93;5.45;;;;;;;33.39;31.06;99276.34;5033583;28;20754;-72
2023/06/02 08:20:27;;;;;;;10.82;5.30;;;;;;;33.53;30.35;99272.03;5051106;28;20236;-67
2023/06/02 08:22:53;;;;;;;8.10;5.03;;;;;;;33.55;30.50;99275.22;5033417;28;20921;-67
2023/06/02 08:25:20;;;;;;;8.77;5.43;;;;;;;33.46;30.05;99277.31;5030097;28;20185;-69
2023/06/02 08:27:47;;;;;;;13.45;5.40;;;;;;;33.36;29.91;99269.59;5029829;28;20554;-70
2023/06/02 08:30:14;;;;;;;6.72;5.30;;;;;;;33.32;30.54;99271.44;5026090;28;20275;-68
2023/06/02 08:32:43;;;;;;;6.05;4.80;;;;;;;33.30;30.81;99263.50;5030754;28;20677;-69
2023/06/02 08:35:10;;;;;;;9.00;5.60;;;;;;;33.38;30.58;99258.19;5029039;28;20643;-69
2023/06/02 08:37:37;;;;;;;5.75;5.20;;;;;;;33.48;30.36;99264.00;5030341;28;20232;-67
2023/06/02 08:40:05;;;;;;;5.63;5.03;;;;;;;33.58;29.55;99270.94;5044589;28;20204;-68
2023/06/02 08:42:33;;;;;;;5.53;4.77;;;;;;;33.66;29.22;99264.47;5031171;28;20278;-69
2023/06/02 08:44:59;;;;;;;11.80;5.30;;;;;;;33.59;30.15;99261.56;5050082;28;20243;-67
2023/06/02 08:47:28;;;;;;;6.10;5.35;;;;;;;33.37;29.70;99259.34;5049218;28;20189;-68
2023/06/02 08:50:01;;;;;;;8.45;5.78;;;;;;;33.46;30.19;99251.72;5049743;28;20224;-68
2023/06/02 08:52:29;;;;;;;10.13;5.82;;;;;;;33.55;30.94;99249.63;5049805;28;20193;-68
2023/06/02 08:54:56;;;;;;;8.57;5.55;;;;;;;33.22;30.80;99242.41;5025466;28;20272;-68
2023/06/02 08:57:23;;;;;;;8.48;5.15;;;;;;;33.20;30.50;99244.69;5019507;28;20189;-68
2023/06/02 08:59:50;;;;;;;8.05;5.70;;;;;;;33.26;30.43;99224.03;5030572;28;20288;-68
2023/06/02 09:02:18;;;;;;;5.70;5.20;;;;;;;33.24;31.60;99231.81;5030744;28;20211;-67
2023/06/02 09:04:45;;;;;;;10.35;5.95;;;;;;;32.58;32.66;99236.13;5034682;28;20653;-67
2023/06/02 09:07:21;;;;;;;7.87;5.53;;;;;;;32.87;32.84;99222.09;5034139;28;20243;-69
2023/06/02 09:09:50;;;;;;;7.83;5.17;;;;;;;32.69;32.74;99223.50;5032172;28;20688;-67
2023/06/02 09:12:18;;;;;;;8.67;5.33;;;;;;;32.73;33.13;99218.91;5035960;28;20224;-67
2023/06/02 09:14:46;;;;;;;6.87;5.27;;;;;;;32.80;32.00;99216.41;5033914;28;20208;-67
2023/06/02 09:17:25;;;;;;;10.95;5.63;;;;;;;32.08;32.84;99224.69;5034097;28;20209;-67
2023/06/02 09:19:53;;;;;;;9.33;6.00;;;;;;;32.29;33.27;99222.66;5033822;28;20190;-67
2023/06/02 09:22:21;;;;;;;11.77;4.47;;;;;;;32.49;27.88;99232.72;5031176;28;20197;-69
2023/06/02 09:24:48;;;;;;;5.60;5.10;;;;;;;32.46;30.45;99210.63;5032722;28;20209;-67
2023/06/02 09:27:16;;;;;;;5.70;4.53;;;;;;;32.37;31.08;99223.66;5051626;28;20716;-65
2023/06/02 09:29:44;;;;;;;5.03;4.63;;;;;;;32.24;31.16;99217.38;5049405;28;20285;-68
2023/06/02 09:32:13;;;;;;;6.43;4.47;;;;;;;32.18;30.11;99221.47;5036346;28;20201;-67
2023/06/02 09:34:39;;;;;;;6.87;5.33;;;;;;;32.12;31.60;99209.13;5047577;28;20246;-67
2023/06/02 09:37:11;;;;;;;5.17;4.67;;;;;;;32.12;32.07;99200.88;5033994;28;20229;-66
2023/06/02 09:39:42;;;;;;;7.00;5.53;;;;;;;31.46;33.24;99204.09;5034554;28;20197;-67
2023/06/02 09:42:09;;;;;;;7.33;5.27;;;;;;;31.67;33.03;99204.81;5034308;28;20217;-67
2023/06/02 09:44:36;;;;;;;5.43;4.80;;;;;;;31.36;34.28;99190.81;5038561;28;20193;-67
2023/06/02 09:47:03;;;;;;;6.70;5.27;;;;;;;30.82;35.55;99184.50;5048643;28;20186;-68
2023/06/02 09:49:39;;;;;;;8.23;4.97;;;;;;;30.94;34.61;99190.06;5032916;28;20197;-67
2023/06/02 09:52:14;;;;;;;5.57;5.07;;;;;;;30.44;36.11;99189.31;5032351;28;20188;-68
2023/06/02 09:54:42;;;;;;;7.03;4.63;;;;;;;30.50;35.93;99166.03;5030499;28;20207;-71
2023/06/02 09:57:10;;;;;;;9.10;4.90;;;;;;;30.75;31.71;99184.25;5032783;28;20677;-67
2023/06/02 09:59:39;;;;;;;7.27;5.13;;;;;;;30.24;30.89;99181.84;5030266;28;20225;-68
2023/06/02 10:02:07;;;;;;;5.13;4.73;;;;;;;29.58;32.88;99179.09;5032193;28;20251;-69
2023/06/02 10:04:34;;;;;;;4.80;4.20;;;;;;;29.94;31.09;99174.75;5029475;28;20228;-69
2023/06/02 10:07:13;;;;;;;5.60;5.00;;;;;;;29.81;31.60;99181.25;5035866;28;20189;-71
2023/06/02 10:09:56;;;;;;;5.20;4.70;;;;;;;28.80;34.88;99169.38;5053283;28;20536;-66
2023/06/02 10:12:34;;;;;;;5.03;4.73;;;;;;;29.23;35.69;99164.66;5053093;28;20184;-66
2023/06/02 10:15:42;;;;;;;6.40;4.80;;;;;;;29.62;34.78;99161.69;5048066;28;20184;-67
2023/06/02 10:18:34;;;;;;;7.47;4.50;;;;;;;29.72;35.10;99141.34;5019268;28;20251;-68
2023/06/02 10:21:10;;;;;;;5.57;5.10;;;;;;;29.70;35.65;99162.78;5031430;28;20673;-69
2023/06/02 10:23:49;;;;;;;5.33;4.57;;;;;;;29.86;35.50;99150.13;5031390;28;20620;-69
2023/06/02 10:26:39;;;;;;;9.70;4.63;;;;;;;29.90;34.80;99140.94;5047614;28;20239;-68
2023/06/02 10:29:08;;;;;;;5.10;4.70;;;;;;;30.17;34.83;99143.19;5052581;28;20647;-72
2023/06/02 10:31:35;;;;;;;6.20;5.03;;;;;;;30.33;35.77;99146.19;5034424;28;20306;-72
2023/06/02 10:34:03;;;;;;;9.90;4.63;;;;;;;30.04;35.91;99140.69;5032425;28;20248;-68
2023/06/02 10:36:49;;;;;;;7.10;4.87;;;;;;;30.38;34.39;99149.50;5046432;28;20645;-69
2023/06/02 10:39:47;;;;;;;9.37;4.53;;;;;;;30.55;33.70;99152.13;5052111;28;20189;-70
2023/06/02 10:42:16;;;;;;;7.93;4.83;;;;;;;30.68;34.40;99140.06;5052720;28;20249;-71
2023/06/02 10:44:43;;;;;;;5.37;4.53;;;;;;;30.83;33.64;99147.69;5052475;28;20265;-70
2023/06/02 10:47:35;;;;;;;12.70;4.67;;;;;;;30.95;32.53;99142.25;5051397;28;20224;-69
2023/06/02 10:50:17;;;;;;;5.17;4.50;;;;;;;31.13;33.08;99135.47;5052754;28;20221;-70
2023/06/02 10:53:09;;;;;;;4.33;3.87;;;;;;;31.22;32.05;99147.16;5050640;28;20311;-70
2023/06/02 10:55:36;;;;;;;5.03;4.63;;;;;;;31.17;32.34;99125.41;5047454;28;20225;-69
2023/06/02 10:58:05;;;;;;;6.60;5.03;;;;;;;30.82;32.59;99126.13;5032560;28;20194;-74
2023/06/02 11:00:49;;;;;;;7.47;4.70;;;;;;;31.12;32.07;99135.81;5032120;28;20258;-74
2023/06/02 11:03:33;;;;;;;9.50;4.33;;;;;;;31.09;32.74;99118.06;5032319;28;20696;-69
2023/06/02 11:06:20;;;;;;;5.53;4.33;;;;;;;31.20;31.77;99119.22;5034756;28;20263;-68
2023/06/02 11:08:49;;;;;;;8.40;4.10;;;;;;;31.21;31.42;99131.84;5031737;28;20185;-72
2023/06/02 11:11:54;;;;;;;5.07;4.00;;;;;;;31.19;31.91;99117.63;5031769;28;20286;-73
2023/06/02 11:14:22;;;;;;;4.10;3.73;;;;;;;31.18;31.51;99126.19;5033435;28;20535;-72
2023/06/02 11:17:29;;;;;;;9.33;4.53;;;;;;;31.19;30.91;99120.38;5031057;28;20239;-69
2023/06/02 11:19:57;;;;;;;4.20;3.90;;;;;;;31.22;29.56;99125.19;5030318;28;20181;-70
2023/06/02 11:22:24;;;;;;;5.33;3.80;;;;;;;31.07;28.89;99109.38;5032148;28;20193;-69
2023/06/02 11:24:51;;;;;;;7.60;3.83;;;;;;;31.11;28.84;99118.53;5034918;28;20198;-70
2023/06/02 11:27:18;;;;;;;4.50;4.00;;;;;;;30.72;29.02;99124.59;5030983;28;20710;-70
2023/06/02 11:30:03;;;;;;;3.80;3.53;;;;;;;30.79;30.50;99105.63;5031525;28;20201;-71
2023/06/02 11:32:30;;;;;;;6.93;4.20;;;;;;;30.86;28.76;99097.66;5028644;28;20185;-73
2023/06/02 11:35:01;;;;;;;4.33;3.90;;;;;;;30.91;29.49;99100.16;5045125;28;20250;-68
2023/06/02 11:37:27;;;;;;;8.83;4.27;;;;;;;30.63;29.53;99103.81;5042595;28;20308;-71
2023/06/02 11:39:55;;;;;;;4.50;3.90;;;;;;;30.38;29.70;99104.84;5031702;28;20189;-69